sensor_id;sensor_type;location;lat;lon;timestamp;temperature;humidity
2757;DHT22;1386;50.862;6.494;2022-11-04T06:27:16;8.30;99.90
2757;DHT22;1386;50.862;6.494;2022-11-04T06:29:43;8.30;99.90
2757;DHT22;1386;50.862;6.494;2022-11-04T06:32:14;8.20;99.90
2757;DHT22;1386;50.862;6.494;2022-11-04T06:34:42;8.20;99.90
2757;DHT22;1386;50.862;6.494;2022-11-04T06:37:09;8.20;99.90
2757;DHT22;1386;50.862;6.494;2022-11-04T06:39:36;8.30;99.90
2757;DHT22;1386;50.862;6.494;2022-11-04T06:42:04;8.30;99.90
2757;DHT22;1386;50.862;6.494;2022-11-04T06:44:32;8.30;99.90
2757;DHT22;1386;50.862;6.494;2022-11-04T06:46:59;8.30;99.90
2757;DHT22;1386;50.862;6.494;2022-11-04T06:49:27;8.40;99.90
2757;DHT22;1386;50.862;6.494;2022-11-04T06:51:54;8.40;99.90
2757;DHT22;1386;50.862;6.494;2022-11-04T06:54:21;8.50;99.90
2757;DHT22;1386;50.862;6.494;2022-11-04T06:56:48;8.50;99.90
2757;DHT22;1386;50.862;6.494;2022-11-04T06:59:16;8.60;99.90
2757;DHT22;1386;50.862;6.494;2022-11-04T07:01:45;8.60;99.90
2757;DHT22;1386;50.862;6.494;2022-11-04T07:04:12;8.60;99.90
2757;DHT22;1386;50.862;6.494;2022-11-04T07:06:41;8.60;99.90
2757;DHT22;1386;50.862;6.494;2022-11-04T07:09:10;8.70;99.90
2757;DHT22;1386;50.862;6.494;2022-11-04T07:11:37;8.70;99.90
2757;DHT22;1386;50.862;6.494;2022-11-04T07:14:04;8.70;99.90
2757;DHT22;1386;50.862;6.494;2022-11-04T07:16:33;8.80;99.90
2757;DHT22;1386;50.862;6.494;2022-11-04T07:19:02;8.80;99.90
2757;DHT22;1386;50.862;6.494;2022-11-04T07:21:29;8.80;99.90
2757;DHT22;1386;50.862;6.494;2022-11-04T07:23:57;8.80;99.90
2757;DHT22;1386;50.862;6.494;2022-11-04T07:26:24;8.90;99.90
2757;DHT22;1386;50.862;6.494;2022-11-04T07:28:51;8.90;99.90
2757;DHT22;1386;50.862;6.494;2022-11-04T07:31:18;8.90;99.90
2757;DHT22;1386;50.862;6.494;2022-11-04T07:33:46;8.90;99.90
2757;DHT22;1386;50.862;6.494;2022-11-04T07:36:17;8.90;99.90
2757;DHT22;1386;50.862;6.494;2022-11-04T07:38:45;9.00;99.90
2757;DHT22;1386;50.862;6.494;2022-11-04T07:41:12;9.00;99.90
2757;DHT22;1386;50.862;6.494;2022-11-04T07:43:39;9.00;99.90
2757;DHT22;1386;50.862;6.494;2022-11-04T07:46:07;9.00;99.90
2757;DHT22;1386;50.862;6.494;2022-11-04T07:48:35;9.00;99.90
2757;DHT22;1386;50.862;6.494;2022-11-04T07:51:03;9.00;99.90
2757;DHT22;1386;50.862;6.494;2022-11-04T07:53:32;9.00;99.90
2757;DHT22;1386;50.862;6.494;2022-11-04T07:56:02;9.00;99.90
2757;DHT22;1386;50.862;6.494;2022-11-04T07:58:29;9.00;99.90
2757;DHT22;1386;50.862;6.494;2022-11-04T08:00:59;9.00;99.90
2757;DHT22;1386;50.862;6.494;2022-11-04T08:03:27;9.00;99.90
2757;DHT22;1386;50.862;6.494;2022-11-04T08:05:55;9.00;99.90
2757;DHT22;1386;50.862;6.494;2022-11-04T08:08:22;9.00;99.90
2757;DHT22;1386;50.862;6.494;2022-11-04T08:10:55;9.00;99.90
2757;DHT22;1386;50.862;6.494;2022-11-04T08:13:26;9.00;99.90
2757;DHT22;1386;50.862;6.494;2022-11-04T08:15:53;9.00;99.90
2757;DHT22;1386;50.862;6.494;2022-11-04T08:18:20;9.00;99.90
2757;DHT22;1386;50.862;6.494;2022-11-04T08:20:47;9.00;99.90
2757;DHT22;1386;50.862;6.494;2022-11-04T08:23:15;9.10;99.90
2757;DHT22;1386;50.862;6.494;2022-11-04T08:25:42;9.10;99.90
2757;DHT22;1386;50.862;6.494;2022-11-04T08:28:11;9.10;99.90
2757;DHT22;1386;50.862;6.494;2022-11-04T08:30:50;9.10;99.90
2757;DHT22;1386;50.862;6.494;2022-11-04T08:33:17;9.20;99.90
2757;DHT22;1386;50.862;6.494;2022-11-04T08:35:43;9.30;99.90
2757;DHT22;1386;50.862;6.494;2022-11-04T08:38:10;9.30;99.90
2757;DHT22;1386;50.862;6.494;2022-11-04T08:40:37;9.40;99.90
2757;DHT22;1386;50.862;6.494;2022-11-04T08:43:04;9.40;99.90
2757;DHT22;1386;50.862;6.494;2022-11-04T08:45:38;9.50;99.90
2757;DHT22;1386;50.862;6.494;2022-11-04T08:48:05;9.50;99.90
2757;DHT22;1386;50.862;6.494;2022-11-04T08:50:32;9.60;99.90
2757;DHT22;1386;50.862;6.494;2022-11-04T08:52:59;9.70;99.90
2757;DHT22;1386;50.862;6.494;2022-11-04T08:55:27;9.70;99.90
2757;DHT22;1386;50.862;6.494;2022-11-04T08:57:54;9.70;99.90
2757;DHT22;1386;50.862;6.494;2022-11-04T09:00:21;9.80;99.90
2757;DHT22;1386;50.862;6.494;2022-11-04T09:02:49;9.80;99.90
2757;DHT22;1386;50.862;6.494;2022-11-04T09:05:16;9.80;99.90
2757;DHT22;1386;50.862;6.494;2022-11-04T09:07:43;9.90;99.90
2757;DHT22;1386;50.862;6.494;2022-11-04T09:10:10;9.90;99.90
2757;DHT22;1386;50.862;6.494;2022-11-04T09:12:38;9.90;99.90
2757;DHT22;1386;50.862;6.494;2022-11-04T09:15:09;10.00;99.90
2757;DHT22;1386;50.862;6.494;2022-11-04T09:17:36;10.00;99.90
2757;DHT22;1386;50.862;6.494;2022-11-04T09:20:05;10.00;99.90
2757;DHT22;1386;50.862;6.494;2022-11-04T09:22:32;10.10;99.90
2757;DHT22;1386;50.862;6.494;2022-11-04T09:25:00;10.10;99.90
2757;DHT22;1386;50.862;6.494;2022-11-04T09:27:26;10.20;99.90
2757;DHT22;1386;50.862;6.494;2022-11-04T09:29:53;10.20;99.90
2757;DHT22;1386;50.862;6.494;2022-11-04T09:32:20;10.20;99.90
2757;DHT22;1386;50.862;6.494;2022-11-04T09:34:50;10.30;99.90
2757;DHT22;1386;50.862;6.494;2022-11-04T09:37:18;10.40;99.90
2757;DHT22;1386;50.862;6.494;2022-11-04T09:39:45;10.50;99.90
2757;DHT22;1386;50.862;6.494;2022-11-04T09:42:36;10.50;99.90
2757;DHT22;1386;50.862;6.494;2022-11-04T09:45:10;10.60;99.90
2757;DHT22;1386;50.862;6.494;2022-11-04T09:47:39;10.80;99.90
2757;DHT22;1386;50.862;6.494;2022-11-04T09:50:08;11.00;99.90
2757;DHT22;1386;50.862;6.494;2022-11-04T09:52:50;11.30;99.90
2757;DHT22;1386;50.862;6.494;2022-11-04T09:55:25;11.60;99.90
2757;DHT22;1386;50.862;6.494;2022-11-04T09:57:56;11.90;99.90
2757;DHT22;1386;50.862;6.494;2022-11-04T10:00:30;12.00;99.90
2757;DHT22;1386;50.862;6.494;2022-11-04T10:03:10;12.10;99.90
2757;DHT22;1386;50.862;6.494;2022-11-04T10:05:53;12.10;99.90
2757;DHT22;1386;50.862;6.494;2022-11-04T10:08:35;12.00;99.90
2757;DHT22;1386;50.862;6.494;2022-11-04T10:11:11;11.90;99.90
2757;DHT22;1386;50.862;6.494;2022-11-04T10:13:53;11.90;99.90
2757;DHT22;1386;50.862;6.494;2022-11-04T10:16:33;11.80;99.90
2757;DHT22;1386;50.862;6.494;2022-11-04T10:19:33;11.80;99.90
2757;DHT22;1386;50.862;6.494;2022-11-04T10:22:09;11.80;99.90
2757;DHT22;1386;50.862;6.494;2022-11-04T10:24:43;11.80;99.90
2757;DHT22;1386;50.862;6.494;2022-11-04T10:27:15;11.80;99.90
2757;DHT22;1386;50.862;6.494;2022-11-04T10:29:44;11.90;99.90
2757;DHT22;1386;50.862;6.494;2022-11-04T10:32:16;11.90;99.90
2757;DHT22;1386;50.862;6.494;2022-11-04T10:34:47;12.00;99.90
2757;DHT22;1386;50.862;6.494;2022-11-04T10:37:15;11.90;99.90
2757;DHT22;1386;50.862;6.494;2022-11-04T10:39:45;12.00;99.90
2757;DHT22;1386;50.862;6.494;2022-11-04T10:42:14;12.00;99.90
2757;DHT22;1386;50.862;6.494;2022-11-04T10:44:42;12.10;99.90
2757;DHT22;1386;50.862;6.494;2022-11-04T10:47:21;12.20;99.90
2757;DHT22;1386;50.862;6.494;2022-11-04T10:52:39;12.40;99.90
2757;DHT22;1386;50.862;6.494;2022-11-04T10:55:16;12.50;99.90
2757;DHT22;1386;50.862;6.494;2022-11-04T10:57:47;12.60;99.90
2757;DHT22;1386;50.862;6.494;2022-11-04T11:00:33;12.70;99.90
2757;DHT22;1386;50.862;6.494;2022-11-04T11:03:00;12.70;99.90
2757;DHT22;1386;50.862;6.494;2022-11-04T11:05:27;12.70;99.90
2757;DHT22;1386;50.862;6.494;2022-11-04T11:07:55;12.60;99.90
2757;DHT22;1386;50.862;6.494;2022-11-04T11:10:26;12.60;99.90
2757;DHT22;1386;50.862;6.494;2022-11-04T11:12:55;12.70;99.90
2757;DHT22;1386;50.862;6.494;2022-11-04T11:15:29;12.80;99.90
2757;DHT22;1386;50.862;6.494;2022-11-04T11:18:10;12.90;99.90
2757;DHT22;1386;50.862;6.494;2022-11-04T11:20:38;13.00;99.90
2757;DHT22;1386;50.862;6.494;2022-11-04T11:23:08;13.00;99.90
2757;DHT22;1386;50.862;6.494;2022-11-04T11:25:56;13.10;99.90
2757;DHT22;1386;50.862;6.494;2022-11-04T11:28:23;13.10;99.90
2757;DHT22;1386;50.862;6.494;2022-11-04T11:30:56;13.20;99.90
2757;DHT22;1386;50.862;6.494;2022-11-04T11:33:26;13.40;99.90
2757;DHT22;1386;50.862;6.494;2022-11-04T11:35:57;13.50;99.90
2757;DHT22;1386;50.862;6.494;2022-11-04T11:38:26;13.50;99.90
2757;DHT22;1386;50.862;6.494;2022-11-04T11:41:05;13.50;99.90
2757;DHT22;1386;50.862;6.494;2022-11-04T11:43:34;13.40;99.90
2757;DHT22;1386;50.862;6.494;2022-11-04T11:46:02;13.40;99.90
2757;DHT22;1386;50.862;6.494;2022-11-04T11:48:32;13.50;99.90
2757;DHT22;1386;50.862;6.494;2022-11-04T11:50:59;13.50;99.90
2757;DHT22;1386;50.862;6.494;2022-11-04T11:53:26;13.50;99.90
2757;DHT22;1386;50.862;6.494;2022-11-04T11:56:05;13.50;99.90
2757;DHT22;1386;50.862;6.494;2022-11-04T11:58:38;13.50;99.90
2757;DHT22;1386;50.862;6.494;2022-11-04T12:01:12;13.50;99.90
2757;DHT22;1386;50.862;6.494;2022-11-04T12:03:43;13.40;99.90
2757;DHT22;1386;50.862;6.494;2022-11-04T12:06:28;13.40;99.90
2757;DHT22;1386;50.862;6.494;2022-11-04T12:09:11;13.40;99.90
2757;DHT22;1386;50.862;6.494;2022-11-04T12:12:02;13.30;99.90
2757;DHT22;1386;50.862;6.494;2022-11-04T12:14:39;13.20;99.90
2757;DHT22;1386;50.862;6.494;2022-11-04T12:17:17;13.20;99.90
2757;DHT22;1386;50.862;6.494;2022-11-04T12:19:54;13.20;99.90
2757;DHT22;1386;50.862;6.494;2022-11-04T12:22:28;13.20;99.90
2757;DHT22;1386;50.862;6.494;2022-11-04T12:25:04;13.30;99.90
2757;DHT22;1386;50.862;6.494;2022-11-04T12:27:42;13.50;99.90
2757;DHT22;1386;50.862;6.494;2022-11-04T12:30:13;13.60;99.90
2757;DHT22;1386;50.862;6.494;2022-11-04T12:32:59;13.60;99.90
2757;DHT22;1386;50.862;6.494;2022-11-04T12:35:50;13.60;99.90
2757;DHT22;1386;50.862;6.494;2022-11-04T12:38:33;13.50;99.90
2757;DHT22;1386;50.862;6.494;2022-11-04T12:41:10;13.50;99.90
2757;DHT22;1386;50.862;6.494;2022-11-04T12:43:48;13.50;99.90
2757;DHT22;1386;50.862;6.494;2022-11-04T12:46:25;13.50;99.90
2757;DHT22;1386;50.862;6.494;2022-11-04T12:49:28;13.50;99.90
2757;DHT22;1386;50.862;6.494;2022-11-04T12:52:00;13.50;99.90
2757;DHT22;1386;50.862;6.494;2022-11-04T12:54:52;13.50;99.90
2757;DHT22;1386;50.862;6.494;2022-11-04T12:57:30;13.50;99.90
2757;DHT22;1386;50.862;6.494;2022-11-04T13:00:08;13.40;99.90
2757;DHT22;1386;50.862;6.494;2022-11-04T13:02:39;13.30;99.90
2757;DHT22;1386;50.862;6.494;2022-11-04T13:05:24;13.30;99.90
2757;DHT22;1386;50.862;6.494;2022-11-04T13:07:55;13.20;99.90
2757;DHT22;1386;50.862;6.494;2022-11-04T13:10:29;13.20;99.90
2757;DHT22;1386;50.862;6.494;2022-11-04T13:13:00;13.10;99.90
2757;DHT22;1386;50.862;6.494;2022-11-04T13:15:32;13.00;99.90
2757;DHT22;1386;50.862;6.494;2022-11-04T13:18:04;12.90;99.90
2757;DHT22;1386;50.862;6.494;2022-11-04T13:20:38;12.80;99.90
2757;DHT22;1386;50.862;6.494;2022-11-04T13:23:12;12.80;99.90
2757;DHT22;1386;50.862;6.494;2022-11-04T13:25:44;12.60;99.90
2757;DHT22;1386;50.862;6.494;2022-11-04T13:28:14;12.60;99.90
2757;DHT22;1386;50.862;6.494;2022-11-04T13:30:58;12.60;99.90
2757;DHT22;1386;50.862;6.494;2022-11-04T13:33:36;12.50;99.90
2757;DHT22;1386;50.862;6.494;2022-11-04T13:36:11;12.50;99.90
2757;DHT22;1386;50.862;6.494;2022-11-04T13:38:43;12.50;99.90
2757;DHT22;1386;50.862;6.494;2022-11-04T13:44:13;12.40;99.90
2757;DHT22;1386;50.862;6.494;2022-11-04T13:46:46;12.40;99.90
2757;DHT22;1386;50.862;6.494;2022-11-04T13:49:19;12.40;99.90
2757;DHT22;1386;50.862;6.494;2022-11-04T13:52:02;12.50;99.90
2757;DHT22;1386;50.862;6.494;2022-11-04T13:54:34;12.40;99.90
2757;DHT22;1386;50.862;6.494;2022-11-04T13:57:05;12.50;99.90
2757;DHT22;1386;50.862;6.494;2022-11-04T13:59:40;12.40;99.90
2757;DHT22;1386;50.862;6.494;2022-11-04T14:02:31;12.40;99.90
2757;DHT22;1386;50.862;6.494;2022-11-04T14:08:18;12.40;99.90
2757;DHT22;1386;50.862;6.494;2022-11-04T14:11:03;12.40;99.90
2757;DHT22;1386;50.862;6.494;2022-11-04T14:16:43;12.30;99.90
2757;DHT22;1386;50.862;6.494;2022-11-04T14:22:48;12.20;99.90
2757;DHT22;1386;50.862;6.494;2022-11-04T14:25:25;12.20;99.90
2757;DHT22;1386;50.862;6.494;2022-11-04T14:27:54;12.20;99.90
2757;DHT22;1386;50.862;6.494;2022-11-04T14:30:42;12.10;99.90
2757;DHT22;1386;50.862;6.494;2022-11-04T14:33:21;12.10;99.90
2757;DHT22;1386;50.862;6.494;2022-11-04T14:35:50;12.10;99.90
2757;DHT22;1386;50.862;6.494;2022-11-04T14:38:24;12.10;99.90
2757;DHT22;1386;50.862;6.494;2022-11-04T14:41:12;12.00;99.90
2757;DHT22;1386;50.862;6.494;2022-11-04T14:43:42;12.00;99.90
2757;DHT22;1386;50.862;6.494;2022-11-04T14:46:16;12.10;99.90
2757;DHT22;1386;50.862;6.494;2022-11-04T14:48:48;12.00;99.90
2757;DHT22;1386;50.862;6.494;2022-11-04T14:51:23;12.00;99.90
2757;DHT22;1386;50.862;6.494;2022-11-04T14:53:54;12.00;99.90
2757;DHT22;1386;50.862;6.494;2022-11-04T14:56:24;12.00;99.90
2757;DHT22;1386;50.862;6.494;2022-11-04T14:58:57;12.00;99.90
2757;DHT22;1386;50.862;6.494;2022-11-04T15:01:25;12.00;99.90
2757;DHT22;1386;50.862;6.494;2022-11-04T15:03:55;12.00;99.90
2757;DHT22;1386;50.862;6.494;2022-11-04T15:06:24;11.90;99.90
2757;DHT22;1386;50.862;6.494;2022-11-04T15:12:12;11.90;99.90
2757;DHT22;1386;50.862;6.494;2022-11-04T15:14:57;11.90;99.90
2757;DHT22;1386;50.862;6.494;2022-11-04T15:17:27;11.80;99.90
2757;DHT22;1386;50.862;6.494;2022-11-04T15:19:57;11.90;99.90
2757;DHT22;1386;50.862;6.494;2022-11-04T15:22:26;11.80;99.90
2757;DHT22;1386;50.862;6.494;2022-11-04T15:24:53;11.80;99.90
2757;DHT22;1386;50.862;6.494;2022-11-04T15:27:26;11.80;99.90
2757;DHT22;1386;50.862;6.494;2022-11-04T15:29:55;11.80;99.90
2757;DHT22;1386;50.862;6.494;2022-11-04T15:32:23;11.80;99.90
2757;DHT22;1386;50.862;6.494;2022-11-04T15:34:50;11.70;99.90
2757;DHT22;1386;50.862;6.494;2022-11-04T15:37:20;11.70;99.90
2757;DHT22;1386;50.862;6.494;2022-11-04T15:39:51;11.70;99.90
2757;DHT22;1386;50.862;6.494;2022-11-04T15:42:27;11.70;99.90
2757;DHT22;1386;50.862;6.494;2022-11-04T15:45:29;11.70;99.90
2757;DHT22;1386;50.862;6.494;2022-11-04T15:48:23;11.70;99.90
2757;DHT22;1386;50.862;6.494;2022-11-04T15:50:54;11.70;99.90
2757;DHT22;1386;50.862;6.494;2022-11-04T15:53:23;11.70;99.90
2757;DHT22;1386;50.862;6.494;2022-11-04T15:55:50;11.70;99.90
2757;DHT22;1386;50.862;6.494;2022-11-04T15:58:18;11.70;99.90
2757;DHT22;1386;50.862;6.494;2022-11-04T16:00:51;11.70;99.90
2757;DHT22;1386;50.862;6.494;2022-11-04T16:03:19;11.70;99.90
2757;DHT22;1386;50.862;6.494;2022-11-04T16:06:02;11.70;99.90
2757;DHT22;1386;50.862;6.494;2022-11-04T16:08:31;11.80;99.90
2757;DHT22;1386;50.862;6.494;2022-11-04T16:11:12;11.70;99.90
2757;DHT22;1386;50.862;6.494;2022-11-04T16:13:41;11.70;99.90
2757;DHT22;1386;50.862;6.494;2022-11-04T16:16:20;11.60;99.90
2757;DHT22;1386;50.862;6.494;2022-11-04T16:18:50;11.60;99.90
2757;DHT22;1386;50.862;6.494;2022-11-04T16:21:24;11.50;99.90
2757;DHT22;1386;50.862;6.494;2022-11-04T16:23:56;11.50;99.90
2757;DHT22;1386;50.862;6.494;2022-11-04T16:26:26;11.50;99.90
2757;DHT22;1386;50.862;6.494;2022-11-04T16:28:57;11.50;99.90
2757;DHT22;1386;50.862;6.494;2022-11-04T16:31:26;11.50;99.90
2757;DHT22;1386;50.862;6.494;2022-11-04T16:33:54;11.40;99.90
2757;DHT22;1386;50.862;6.494;2022-11-04T16:36:21;11.40;99.90
2757;DHT22;1386;50.862;6.494;2022-11-04T16:38:52;11.40;99.90
2757;DHT22;1386;50.862;6.494;2022-11-04T16:41:21;11.40;99.90
2757;DHT22;1386;50.862;6.494;2022-11-04T16:43:48;11.40;99.90
2757;DHT22;1386;50.862;6.494;2022-11-04T16:46:17;11.40;99.90
2757;DHT22;1386;50.862;6.494;2022-11-04T16:48:44;11.40;99.90
2757;DHT22;1386;50.862;6.494;2022-11-04T16:51:15;11.40;99.90
2757;DHT22;1386;50.862;6.494;2022-11-04T16:53:43;11.30;99.90
2757;DHT22;1386;50.862;6.494;2022-11-04T16:56:10;11.30;99.90
2757;DHT22;1386;50.862;6.494;2022-11-04T16:58:37;11.30;99.90
2757;DHT22;1386;50.862;6.494;2022-11-04T17:01:04;11.30;99.90
2757;DHT22;1386;50.862;6.494;2022-11-04T17:03:33;11.30;99.90
2757;DHT22;1386;50.862;6.494;2022-11-04T17:05:59;11.30;99.90
2757;DHT22;1386;50.862;6.494;2022-11-04T17:08:27;11.30;99.90
2757;DHT22;1386;50.862;6.494;2022-11-04T17:10:53;11.30;99.90
2757;DHT22;1386;50.862;6.494;2022-11-04T17:13:20;11.30;99.90
2757;DHT22;1386;50.862;6.494;2022-11-04T17:15:47;11.30;99.90
2757;DHT22;1386;50.862;6.494;2022-11-04T17:18:15;11.30;99.90
2757;DHT22;1386;50.862;6.494;2022-11-04T17:20:46;11.30;99.90
2757;DHT22;1386;50.862;6.494;2022-11-04T17:23:15;11.30;99.90
2757;DHT22;1386;50.862;6.494;2022-11-04T17:25:42;11.30;99.90
2757;DHT22;1386;50.862;6.494;2022-11-04T17:28:10;11.30;99.90
2757;DHT22;1386;50.862;6.494;2022-11-04T17:30:38;11.30;99.90
2757;DHT22;1386;50.862;6.494;2022-11-04T17:33:08;11.30;99.90
2757;DHT22;1386;50.862;6.494;2022-11-04T17:35:36;11.30;99.90
2757;DHT22;1386;50.862;6.494;2022-11-04T17:38:04;11.20;99.90
2757;DHT22;1386;50.862;6.494;2022-11-04T17:40:31;11.20;99.90
2757;DHT22;1386;50.862;6.494;2022-11-04T17:43:18;11.20;99.90
2757;DHT22;1386;50.862;6.494;2022-11-04T17:46:02;11.20;99.90
2757;DHT22;1386;50.862;6.494;2022-11-04T17:48:43;11.20;99.90
2757;DHT22;1386;50.862;6.494;2022-11-04T17:51:10;11.10;99.90
2757;DHT22;1386;50.862;6.494;2022-11-04T17:53:38;11.10;99.90
2757;DHT22;1386;50.862;6.494;2022-11-04T17:56:12;11.10;99.90
2757;DHT22;1386;50.862;6.494;2022-11-04T17:58:39;11.10;99.90
2757;DHT22;1386;50.862;6.494;2022-11-04T18:01:06;11.10;99.90
2757;DHT22;1386;50.862;6.494;2022-11-04T18:03:33;11.10;99.90
2757;DHT22;1386;50.862;6.494;2022-11-04T18:06:01;11.10;99.90
2757;DHT22;1386;50.862;6.494;2022-11-04T18:08:28;11.10;99.90
2757;DHT22;1386;50.862;6.494;2022-11-04T18:10:58;11.10;99.90
2757;DHT22;1386;50.862;6.494;2022-11-04T18:13:25;11.00;99.90
2757;DHT22;1386;50.862;6.494;2022-11-04T18:15:51;11.00;99.90
2757;DHT22;1386;50.862;6.494;2022-11-04T18:18:19;11.00;99.90
2757;DHT22;1386;50.862;6.494;2022-11-04T18:20:45;11.00;99.90
2757;DHT22;1386;50.862;6.494;2022-11-04T18:23:12;11.00;99.90
2757;DHT22;1386;50.862;6.494;2022-11-04T18:25:42;11.00;99.90
2757;DHT22;1386;50.862;6.494;2022-11-04T18:28:10;11.00;99.90
2757;DHT22;1386;50.862;6.494;2022-11-04T18:30:38;11.00;99.90
2757;DHT22;1386;50.862;6.494;2022-11-04T18:33:05;10.90;99.90
2757;DHT22;1386;50.862;6.494;2022-11-04T18:35:32;10.90;99.90
2757;DHT22;1386;50.862;6.494;2022-11-04T18:37:59;10.90;99.90
2757;DHT22;1386;50.862;6.494;2022-11-04T18:40:26;10.90;99.90
2757;DHT22;1386;50.862;6.494;2022-11-04T18:42:53;10.90;99.90
2757;DHT22;1386;50.862;6.494;2022-11-04T18:45:22;10.90;99.90
2757;DHT22;1386;50.862;6.494;2022-11-04T18:47:49;10.90;99.90
2757;DHT22;1386;50.862;6.494;2022-11-04T18:50:16;10.80;99.90
2757;DHT22;1386;50.862;6.494;2022-11-04T18:52:43;10.80;99.90
2757;DHT22;1386;50.862;6.494;2022-11-04T18:55:09;10.80;99.90
2757;DHT22;1386;50.862;6.494;2022-11-04T18:57:36;10.80;99.90
2757;DHT22;1386;50.862;6.494;2022-11-04T19:00:04;10.80;99.90
2757;DHT22;1386;50.862;6.494;2022-11-04T19:02:32;10.80;99.90
2757;DHT22;1386;50.862;6.494;2022-11-04T19:04:59;10.70;99.90
2757;DHT22;1386;50.862;6.494;2022-11-04T19:07:26;10.70;99.90
2757;DHT22;1386;50.862;6.494;2022-11-04T19:09:53;10.70;99.90
2757;DHT22;1386;50.862;6.494;2022-11-04T19:12:20;10.70;99.90
2757;DHT22;1386;50.862;6.494;2022-11-04T19:15:05;10.60;99.90
2757;DHT22;1386;50.862;6.494;2022-11-04T19:17:35;10.60;99.90
2757;DHT22;1386;50.862;6.494;2022-11-04T19:20:03;10.60;99.90
2757;DHT22;1386;50.862;6.494;2022-11-04T19:22:30;10.60;99.90
2757;DHT22;1386;50.862;6.494;2022-11-04T19:24:57;10.60;99.90
2757;DHT22;1386;50.862;6.494;2022-11-04T19:27:23;10.60;99.90
2757;DHT22;1386;50.862;6.494;2022-11-04T19:29:51;10.60;99.90
2757;DHT22;1386;50.862;6.494;2022-11-04T19:32:18;10.60;99.90
2757;DHT22;1386;50.862;6.494;2022-11-04T19:34:46;10.60;99.90
2757;DHT22;1386;50.862;6.494;2022-11-04T19:37:14;10.60;99.90
2757;DHT22;1386;50.862;6.494;2022-11-04T19:39:41;10.60;99.90
2757;DHT22;1386;50.862;6.494;2022-11-04T19:42:09;10.60;99.90
2757;DHT22;1386;50.862;6.494;2022-11-04T19:44:53;10.60;99.90
2757;DHT22;1386;50.862;6.494;2022-11-04T19:47:20;10.50;99.90
2757;DHT22;1386;50.862;6.494;2022-11-04T19:49:48;10.50;99.90
2757;DHT22;1386;50.862;6.494;2022-11-04T19:52:15;10.50;99.90
2757;DHT22;1386;50.862;6.494;2022-11-04T19:54:42;10.50;99.90
2757;DHT22;1386;50.862;6.494;2022-11-04T19:57:09;10.50;99.90
2757;DHT22;1386;50.862;6.494;2022-11-04T19:59:36;10.50;99.90
2757;DHT22;1386;50.862;6.494;2022-11-04T20:02:03;10.50;99.90
2757;DHT22;1386;50.862;6.494;2022-11-04T20:04:30;10.50;99.90
2757;DHT22;1386;50.862;6.494;2022-11-04T20:06:58;10.40;99.90
2757;DHT22;1386;50.862;6.494;2022-11-04T20:09:25;10.40;99.90
2757;DHT22;1386;50.862;6.494;2022-11-04T20:11:51;10.40;99.90
2757;DHT22;1386;50.862;6.494;2022-11-04T20:14:36;10.40;99.90
2757;DHT22;1386;50.862;6.494;2022-11-04T20:17:04;10.40;99.90
2757;DHT22;1386;50.862;6.494;2022-11-04T20:19:31;10.40;99.90
2757;DHT22;1386;50.862;6.494;2022-11-04T20:21:59;10.40;99.90
2757;DHT22;1386;50.862;6.494;2022-11-04T20:24:26;10.40;99.90
2757;DHT22;1386;50.862;6.494;2022-11-04T20:26:53;10.40;99.90
2757;DHT22;1386;50.862;6.494;2022-11-04T20:29:20;10.40;99.90
2757;DHT22;1386;50.862;6.494;2022-11-04T20:31:47;10.40;99.90
2757;DHT22;1386;50.862;6.494;2022-11-04T20:34:14;10.40;99.90
2757;DHT22;1386;50.862;6.494;2022-11-04T20:36:41;10.40;99.90
2757;DHT22;1386;50.862;6.494;2022-11-04T20:39:13;10.40;99.90
2757;DHT22;1386;50.862;6.494;2022-11-04T20:41:40;10.40;99.90
2757;DHT22;1386;50.862;6.494;2022-11-04T20:44:08;10.30;99.90
2757;DHT22;1386;50.862;6.494;2022-11-04T20:46:35;10.30;99.90
2757;DHT22;1386;50.862;6.494;2022-11-04T20:49:03;10.30;99.90
2757;DHT22;1386;50.862;6.494;2022-11-04T20:51:31;10.30;99.90
2757;DHT22;1386;50.862;6.494;2022-11-04T20:53:59;10.30;99.90
2757;DHT22;1386;50.862;6.494;2022-11-04T20:56:31;10.30;99.90
2757;DHT22;1386;50.862;6.494;2022-11-04T20:58:59;10.30;99.90
2757;DHT22;1386;50.862;6.494;2022-11-04T21:01:29;10.30;99.90
2757;DHT22;1386;50.862;6.494;2022-11-04T21:03:58;10.30;99.90
2757;DHT22;1386;50.862;6.494;2022-11-04T21:06:27;10.30;99.90
2757;DHT22;1386;50.862;6.494;2022-11-04T21:08:54;10.30;99.90
2757;DHT22;1386;50.862;6.494;2022-11-04T21:11:21;10.30;99.90
2757;DHT22;1386;50.862;6.494;2022-11-04T21:13:49;10.30;99.90
2757;DHT22;1386;50.862;6.494;2022-11-04T21:16:16;10.30;99.90
2757;DHT22;1386;50.862;6.494;2022-11-04T21:18:43;10.30;99.90
2757;DHT22;1386;50.862;6.494;2022-11-04T21:21:12;10.30;99.90
2757;DHT22;1386;50.862;6.494;2022-11-04T21:23:40;10.30;99.90
2757;DHT22;1386;50.862;6.494;2022-11-04T21:26:08;10.30;99.90
2757;DHT22;1386;50.862;6.494;2022-11-04T21:28:37;10.30;99.90
2757;DHT22;1386;50.862;6.494;2022-11-04T21:31:08;10.30;99.90
2757;DHT22;1386;50.862;6.494;2022-11-04T21:33:36;10.30;99.90
2757;DHT22;1386;50.862;6.494;2022-11-04T21:36:04;10.20;99.90
2757;DHT22;1386;50.862;6.494;2022-11-04T21:38:32;10.20;99.90
2757;DHT22;1386;50.862;6.494;2022-11-04T21:41:00;10.20;99.90
2757;DHT22;1386;50.862;6.494;2022-11-04T21:43:27;10.20;99.90
2757;DHT22;1386;50.862;6.494;2022-11-04T21:46:00;10.20;99.90
2757;DHT22;1386;50.862;6.494;2022-11-04T21:48:30;10.20;99.90
2757;DHT22;1386;50.862;6.494;2022-11-04T21:51:01;10.20;99.90
2757;DHT22;1386;50.862;6.494;2022-11-04T21:53:28;10.20;99.90
2757;DHT22;1386;50.862;6.494;2022-11-04T21:56:02;10.20;99.90
2757;DHT22;1386;50.862;6.494;2022-11-04T21:58:29;10.10;99.90
2757;DHT22;1386;50.862;6.494;2022-11-04T22:00:56;10.10;99.90
2757;DHT22;1386;50.862;6.494;2022-11-04T22:03:23;10.10;99.90
2757;DHT22;1386;50.862;6.494;2022-11-04T22:05:59;10.00;99.90
2757;DHT22;1386;50.862;6.494;2022-11-04T22:08:26;10.00;99.90
2757;DHT22;1386;50.862;6.494;2022-11-04T22:10:54;10.00;99.90
2757;DHT22;1386;50.862;6.494;2022-11-04T22:13:22;10.00;99.90
2757;DHT22;1386;50.862;6.494;2022-11-04T22:15:49;9.90;99.90
2757;DHT22;1386;50.862;6.494;2022-11-04T22:18:25;9.90;99.90
2757;DHT22;1386;50.862;6.494;2022-11-04T22:20:52;9.90;99.90
2757;DHT22;1386;50.862;6.494;2022-11-04T22:23:22;9.90;99.90
2757;DHT22;1386;50.862;6.494;2022-11-04T22:25:49;9.80;99.90
2757;DHT22;1386;50.862;6.494;2022-11-04T22:28:16;9.80;99.90
2757;DHT22;1386;50.862;6.494;2022-11-04T22:30:44;9.80;99.90
2757;DHT22;1386;50.862;6.494;2022-11-04T22:33:10;9.80;99.90
2757;DHT22;1386;50.862;6.494;2022-11-04T22:35:37;9.70;99.90
2757;DHT22;1386;50.862;6.494;2022-11-04T22:38:04;9.70;99.90
2757;DHT22;1386;50.862;6.494;2022-11-04T22:40:32;9.70;99.90
2757;DHT22;1386;50.862;6.494;2022-11-04T22:42:59;9.70;99.90
2757;DHT22;1386;50.862;6.494;2022-11-04T22:45:26;9.70;99.90
2757;DHT22;1386;50.862;6.494;2022-11-04T22:47:53;9.70;99.90
2757;DHT22;1386;50.862;6.494;2022-11-04T22:50:20;9.60;99.90
2757;DHT22;1386;50.862;6.494;2022-11-04T22:52:47;9.60;99.90
2757;DHT22;1386;50.862;6.494;2022-11-04T22:55:14;9.60;99.90
2757;DHT22;1386;50.862;6.494;2022-11-04T22:57:43;9.70;99.90
2757;DHT22;1386;50.862;6.494;2022-11-04T23:00:14;9.70;99.90
2757;DHT22;1386;50.862;6.494;2022-11-04T23:02:41;9.60;99.90
2757;DHT22;1386;50.862;6.494;2022-11-04T23:05:08;9.60;99.90
2757;DHT22;1386;50.862;6.494;2022-11-04T23:07:35;9.60;99.90
2757;DHT22;1386;50.862;6.494;2022-11-04T23:10:02;9.50;99.90
2757;DHT22;1386;50.862;6.494;2022-11-04T23:12:47;9.50;99.90